Cedar, Kansas
Current Conditions -  °F | °C
As of 4:53 AM on Sunday 26 Oct 2014 (Local Time) from KHLC Reporting Station
Clear Clear  
Wind Chill: 54°   Ceiling: Unl
Heat Index: 54°   Visibility: 10mi
Dew Point: 47°   Wind: 3mph
Humidity: 77%   Direction: 220°SW
Pressure: 29.79"   Gusts: NA
Location:  39.66°N, 98.94°W
Report Text: KHLC 260953Z AUTO 22003KT 10SM CLR 12/08 A2979 RMK AO2 SLP068 T01220083
Loading
Personal Weather Stations






























Interactive Weather Map
Tropical Storm Tracking
New forecast layout! Learn more

10-Day Weather Forecast

Advertisements
Track Severe Weather on mobile